sensor_id;sensor_type;location;lat;lon;timestamp;P1;durP1;ratioP1;P2;durP2;ratioP2
15358;SDS011;7779;49.596;11.070;2023-04-24T00:00:53;0.80;;;0.80;;
15358;SDS011;7779;49.596;11.070;2023-04-24T00:03:22;2.27;;;1.00;;
15358;SDS011;7779;49.596;11.070;2023-04-24T00:05:49;2.60;;;1.00;;
15358;SDS011;7779;49.596;11.070;2023-04-24T00:08:15;3.27;;;1.10;;
15358;SDS011;7779;49.596;11.070;2023-04-24T00:10:42;1.30;;;1.00;;
15358;SDS011;7779;49.596;11.070;2023-04-24T00:13:08;2.87;;;0.90;;
15358;SDS011;7779;49.596;11.070;2023-04-24T00:15:34;1.13;;;0.80;;
15358;SDS011;7779;49.596;11.070;2023-04-24T00:17:59;1.10;;;1.00;;
15358;SDS011;7779;49.596;11.070;2023-04-24T00:20:26;1.43;;;0.83;;
15358;SDS011;7779;49.596;11.070;2023-04-24T00:22:54;1.73;;;1.03;;
15358;SDS011;7779;49.596;11.070;2023-04-24T00:25:20;1.90;;;0.93;;
15358;SDS011;7779;49.596;11.070;2023-04-24T00:27:46;1.43;;;1.07;;
15358;SDS011;7779;49.596;11.070;2023-04-24T00:30:12;1.27;;;1.00;;
15358;SDS011;7779;49.596;11.070;2023-04-24T00:32:38;1.33;;;1.10;;
15358;SDS011;7779;49.596;11.070;2023-04-24T00:35:04;1.97;;;1.23;;
15358;SDS011;7779;49.596;11.070;2023-04-24T00:37:31;1.10;;;1.00;;
15358;SDS011;7779;49.596;11.070;2023-04-24T00:39:57;0.93;;;0.90;;
15358;SDS011;7779;49.596;11.070;2023-04-24T00:42:23;1.70;;;1.00;;
15358;SDS011;7779;49.596;11.070;2023-04-24T00:44:49;1.37;;;0.70;;
15358;SDS011;7779;49.596;11.070;2023-04-24T00:47:15;1.67;;;1.07;;
15358;SDS011;7779;49.596;11.070;2023-04-24T00:49:42;1.00;;;0.80;;
15358;SDS011;7779;49.596;11.070;2023-04-24T00:52:07;3.50;;;0.90;;
15358;SDS011;7779;49.596;11.070;2023-04-24T00:54:34;1.10;;;0.90;;
15358;SDS011;7779;49.596;11.070;2023-04-24T00:57:01;1.07;;;1.00;;
15358;SDS011;7779;49.596;11.070;2023-04-24T00:59:28;1.00;;;0.90;;
15358;SDS011;7779;49.596;11.070;2023-04-24T01:01:54;1.07;;;0.97;;
15358;SDS011;7779;49.596;11.070;2023-04-24T01:04:21;1.70;;;1.00;;
15358;SDS011;7779;49.596;11.070;2023-04-24T01:06:48;2.00;;;0.80;;
15358;SDS011;7779;49.596;11.070;2023-04-24T01:09:15;1.53;;;1.00;;
15358;SDS011;7779;49.596;11.070;2023-04-24T01:11:43;1.33;;;1.00;;
15358;SDS011;7779;49.596;11.070;2023-04-24T01:14:10;3.10;;;1.00;;
15358;SDS011;7779;49.596;11.070;2023-04-24T01:16:36;1.20;;;1.10;;
15358;SDS011;7779;49.596;11.070;2023-04-24T01:19:03;1.30;;;1.00;;
15358;SDS011;7779;49.596;11.070;2023-04-24T01:21:31;1.43;;;1.00;;
15358;SDS011;7779;49.596;11.070;2023-04-24T01:24:02;1.13;;;1.03;;
15358;SDS011;7779;49.596;11.070;2023-04-24T01:26:29;1.20;;;1.10;;
15358;SDS011;7779;49.596;11.070;2023-04-24T01:28:55;1.33;;;1.00;;
15358;SDS011;7779;49.596;11.070;2023-04-24T01:31:21;0.93;;;0.90;;
15358;SDS011;7779;49.596;11.070;2023-04-24T01:33:48;1.60;;;1.00;;
15358;SDS011;7779;49.596;11.070;2023-04-24T01:36:16;1.50;;;0.90;;
15358;SDS011;7779;49.596;11.070;2023-04-24T01:38:42;1.43;;;0.90;;
15358;SDS011;7779;49.596;11.070;2023-04-24T01:41:09;1.20;;;1.00;;
15358;SDS011;7779;49.596;11.070;2023-04-24T01:43:35;1.10;;;1.00;;
15358;SDS011;7779;49.596;11.070;2023-04-24T01:46:01;2.50;;;0.93;;
15358;SDS011;7779;49.596;11.070;2023-04-24T01:48:27;1.47;;;1.20;;
15358;SDS011;7779;49.596;11.070;2023-04-24T01:50:53;0.93;;;0.80;;
15358;SDS011;7779;49.596;11.070;2023-04-24T01:53:19;1.07;;;0.83;;
15358;SDS011;7779;49.596;11.070;2023-04-24T01:55:45;1.30;;;1.17;;
15358;SDS011;7779;49.596;11.070;2023-04-24T01:58:12;1.50;;;1.00;;
15358;SDS011;7779;49.596;11.070;2023-04-24T02:00:37;1.93;;;0.97;;
15358;SDS011;7779;49.596;11.070;2023-04-24T02:03:03;2.10;;;1.10;;
15358;SDS011;7779;49.596;11.070;2023-04-24T02:05:29;1.10;;;1.00;;
15358;SDS011;7779;49.596;11.070;2023-04-24T02:07:54;1.40;;;1.10;;
15358;SDS011;7779;49.596;11.070;2023-04-24T02:10:20;2.37;;;0.90;;
15358;SDS011;7779;49.596;11.070;2023-04-24T02:12:46;0.70;;;0.70;;
15358;SDS011;7779;49.596;11.070;2023-04-24T02:15:12;1.97;;;1.17;;
15358;SDS011;7779;49.596;11.070;2023-04-24T02:17:38;1.03;;;0.90;;
15358;SDS011;7779;49.596;11.070;2023-04-24T02:20:04;1.93;;;1.27;;
15358;SDS011;7779;49.596;11.070;2023-04-24T02:22:32;0.80;;;0.70;;
15358;SDS011;7779;49.596;11.070;2023-04-24T02:25:00;0.93;;;0.80;;
15358;SDS011;7779;49.596;11.070;2023-04-24T02:27:26;0.80;;;0.80;;
15358;SDS011;7779;49.596;11.070;2023-04-24T02:29:52;2.10;;;0.80;;
15358;SDS011;7779;49.596;11.070;2023-04-24T02:32:18;1.93;;;0.90;;
15358;SDS011;7779;49.596;11.070;2023-04-24T02:34:43;0.70;;;0.70;;
15358;SDS011;7779;49.596;11.070;2023-04-24T02:37:11;0.73;;;0.73;;
15358;SDS011;7779;49.596;11.070;2023-04-24T02:39:37;0.67;;;0.67;;
15358;SDS011;7779;49.596;11.070;2023-04-24T02:42:02;0.83;;;0.60;;
15358;SDS011;7779;49.596;11.070;2023-04-24T02:44:29;1.33;;;0.87;;
15358;SDS011;7779;49.596;11.070;2023-04-24T02:46:55;0.73;;;0.70;;
15358;SDS011;7779;49.596;11.070;2023-04-24T02:49:21;0.73;;;0.60;;
15358;SDS011;7779;49.596;11.070;2023-04-24T02:51:47;0.60;;;0.60;;
15358;SDS011;7779;49.596;11.070;2023-04-24T02:54:13;0.77;;;0.77;;
15358;SDS011;7779;49.596;11.070;2023-04-24T02:56:39;0.70;;;0.70;;
15358;SDS011;7779;49.596;11.070;2023-04-24T02:59:06;2.27;;;0.70;;
15358;SDS011;7779;49.596;11.070;2023-04-24T03:01:33;0.63;;;0.60;;
15358;SDS011;7779;49.596;11.070;2023-04-24T03:03:59;1.27;;;1.10;;
15358;SDS011;7779;49.596;11.070;2023-04-24T03:06:25;0.73;;;0.73;;
15358;SDS011;7779;49.596;11.070;2023-04-24T03:08:51;1.13;;;1.00;;
15358;SDS011;7779;49.596;11.070;2023-04-24T03:11:18;0.70;;;0.70;;
15358;SDS011;7779;49.596;11.070;2023-04-24T03:13:44;1.23;;;0.80;;
15358;SDS011;7779;49.596;11.070;2023-04-24T03:16:09;0.93;;;0.60;;
15358;SDS011;7779;49.596;11.070;2023-04-24T03:18:35;1.00;;;0.57;;
15358;SDS011;7779;49.596;11.070;2023-04-24T03:21:02;1.13;;;0.77;;
15358;SDS011;7779;49.596;11.070;2023-04-24T03:23:29;0.73;;;0.60;;
15358;SDS011;7779;49.596;11.070;2023-04-24T03:25:55;2.13;;;0.60;;
15358;SDS011;7779;49.596;11.070;2023-04-24T03:28:20;0.70;;;0.70;;
15358;SDS011;7779;49.596;11.070;2023-04-24T03:30:52;0.70;;;0.53;;
15358;SDS011;7779;49.596;11.070;2023-04-24T03:33:19;0.60;;;0.60;;
15358;SDS011;7779;49.596;11.070;2023-04-24T03:35:57;2.13;;;0.80;;
15358;SDS011;7779;49.596;11.070;2023-04-24T03:38:24;1.10;;;0.63;;
15358;SDS011;7779;49.596;11.070;2023-04-24T03:40:59;0.67;;;0.60;;
15358;SDS011;7779;49.596;11.070;2023-04-24T03:43:39;0.77;;;0.73;;
15358;SDS011;7779;49.596;11.070;2023-04-24T03:46:05;0.80;;;0.60;;
15358;SDS011;7779;49.596;11.070;2023-04-24T03:48:36;0.60;;;0.60;;
15358;SDS011;7779;49.596;11.070;2023-04-24T03:51:02;0.83;;;0.80;;
15358;SDS011;7779;49.596;11.070;2023-04-24T03:53:32;0.60;;;0.60;;
15358;SDS011;7779;49.596;11.070;2023-04-24T03:55:58;1.03;;;0.67;;
15358;SDS011;7779;49.596;11.070;2023-04-24T03:58:24;2.17;;;0.80;;
15358;SDS011;7779;49.596;11.070;2023-04-24T04:00:51;0.93;;;0.87;;
15358;SDS011;7779;49.596;11.070;2023-04-24T04:03:37;1.30;;;0.70;;
15358;SDS011;7779;49.596;11.070;2023-04-24T04:06:02;0.70;;;0.70;;
15358;SDS011;7779;49.596;11.070;2023-04-24T04:08:29;1.90;;;0.90;;
15358;SDS011;7779;49.596;11.070;2023-04-24T04:10:55;2.00;;;0.70;;
15358;SDS011;7779;49.596;11.070;2023-04-24T04:13:22;0.80;;;0.70;;
15358;SDS011;7779;49.596;11.070;2023-04-24T04:15:48;0.90;;;0.90;;
15358;SDS011;7779;49.596;11.070;2023-04-24T04:18:14;0.83;;;0.83;;
15358;SDS011;7779;49.596;11.070;2023-04-24T04:20:40;0.90;;;0.90;;
15358;SDS011;7779;49.596;11.070;2023-04-24T04:23:06;1.23;;;1.00;;
15358;SDS011;7779;49.596;11.070;2023-04-24T04:25:41;2.10;;;0.80;;
15358;SDS011;7779;49.596;11.070;2023-04-24T04:28:07;1.80;;;0.70;;
15358;SDS011;7779;49.596;11.070;2023-04-24T04:30:33;1.03;;;0.87;;
15358;SDS011;7779;49.596;11.070;2023-04-24T04:33:02;0.67;;;0.60;;
15358;SDS011;7779;49.596;11.070;2023-04-24T04:35:29;1.83;;;0.90;;
15358;SDS011;7779;49.596;11.070;2023-04-24T04:37:55;0.70;;;0.50;;
15358;SDS011;7779;49.596;11.070;2023-04-24T04:40:50;1.10;;;0.80;;
15358;SDS011;7779;49.596;11.070;2023-04-24T04:43:17;2.00;;;0.73;;
15358;SDS011;7779;49.596;11.070;2023-04-24T04:45:49;1.07;;;0.70;;
15358;SDS011;7779;49.596;11.070;2023-04-24T04:48:35;0.50;;;0.50;;
15358;SDS011;7779;49.596;11.070;2023-04-24T04:51:03;0.60;;;0.60;;
15358;SDS011;7779;49.596;11.070;2023-04-24T04:53:30;1.03;;;0.80;;
15358;SDS011;7779;49.596;11.070;2023-04-24T04:55:55;0.70;;;0.50;;
15358;SDS011;7779;49.596;11.070;2023-04-24T04:58:26;2.30;;;0.50;;
15358;SDS011;7779;49.596;11.070;2023-04-24T05:00:55;0.60;;;0.60;;
15358;SDS011;7779;49.596;11.070;2023-04-24T05:03:36;1.30;;;0.83;;
15358;SDS011;7779;49.596;11.070;2023-04-24T05:06:06;1.20;;;0.80;;
15358;SDS011;7779;49.596;11.070;2023-04-24T05:08:34;1.07;;;0.70;;
15358;SDS011;7779;49.596;11.070;2023-04-24T05:11:01;0.60;;;0.50;;
15358;SDS011;7779;49.596;11.070;2023-04-24T05:13:29;1.47;;;0.47;;
15358;SDS011;7779;49.596;11.070;2023-04-24T05:15:55;1.63;;;0.60;;
15358;SDS011;7779;49.596;11.070;2023-04-24T05:18:21;1.10;;;0.70;;
15358;SDS011;7779;49.596;11.070;2023-04-24T05:20:47;0.53;;;0.53;;
15358;SDS011;7779;49.596;11.070;2023-04-24T05:23:13;0.70;;;0.60;;
15358;SDS011;7779;49.596;11.070;2023-04-24T05:25:41;1.93;;;0.60;;
15358;SDS011;7779;49.596;11.070;2023-04-24T05:28:10;0.60;;;0.50;;
15358;SDS011;7779;49.596;11.070;2023-04-24T05:30:37;1.70;;;0.73;;
15358;SDS011;7779;49.596;11.070;2023-04-24T05:33:02;1.57;;;0.70;;
15358;SDS011;7779;49.596;11.070;2023-04-24T05:35:31;1.80;;;0.67;;
15358;SDS011;7779;49.596;11.070;2023-04-24T05:37:57;1.47;;;0.60;;
15358;SDS011;7779;49.596;11.070;2023-04-24T05:40:23;1.33;;;0.67;;
15358;SDS011;7779;49.596;11.070;2023-04-24T05:42:48;0.90;;;0.70;;
15358;SDS011;7779;49.596;11.070;2023-04-24T05:45:14;1.97;;;0.67;;
15358;SDS011;7779;49.596;11.070;2023-04-24T05:47:42;0.77;;;0.60;;
15358;SDS011;7779;49.596;11.070;2023-04-24T05:50:10;0.77;;;0.60;;
15358;SDS011;7779;49.596;11.070;2023-04-24T05:52:36;1.13;;;0.60;;
15358;SDS011;7779;49.596;11.070;2023-04-24T05:55:08;0.80;;;0.60;;
15358;SDS011;7779;49.596;11.070;2023-04-24T05:57:36;1.00;;;0.70;;
15358;SDS011;7779;49.596;11.070;2023-04-24T06:00:03;1.07;;;0.50;;
15358;SDS011;7779;49.596;11.070;2023-04-24T06:02:38;0.90;;;0.70;;
15358;SDS011;7779;49.596;11.070;2023-04-24T06:05:06;1.17;;;0.70;;
15358;SDS011;7779;49.596;11.070;2023-04-24T06:07:33;1.07;;;0.60;;
15358;SDS011;7779;49.596;11.070;2023-04-24T06:10:02;0.93;;;0.73;;
15358;SDS011;7779;49.596;11.070;2023-04-24T06:12:36;1.23;;;0.70;;
15358;SDS011;7779;49.596;11.070;2023-04-24T06:15:06;1.37;;;0.80;;
15358;SDS011;7779;49.596;11.070;2023-04-24T06:17:48;0.63;;;0.63;;
15358;SDS011;7779;49.596;11.070;2023-04-24T06:20:16;1.00;;;0.67;;
15358;SDS011;7779;49.596;11.070;2023-04-24T06:22:41;0.67;;;0.57;;
15358;SDS011;7779;49.596;11.070;2023-04-24T06:25:09;1.73;;;0.70;;
15358;SDS011;7779;49.596;11.070;2023-04-24T06:27:35;1.07;;;0.63;;
15358;SDS011;7779;49.596;11.070;2023-04-24T06:30:00;1.77;;;0.70;;
15358;SDS011;7779;49.596;11.070;2023-04-24T06:32:27;0.93;;;0.80;;
15358;SDS011;7779;49.596;11.070;2023-04-24T06:34:52;1.97;;;0.70;;
15358;SDS011;7779;49.596;11.070;2023-04-24T06:37:19;1.80;;;1.00;;
15358;SDS011;7779;49.596;11.070;2023-04-24T06:39:45;1.40;;;0.73;;
15358;SDS011;7779;49.596;11.070;2023-04-24T06:42:11;0.63;;;0.43;;
15358;SDS011;7779;49.596;11.070;2023-04-24T06:44:37;1.13;;;0.60;;
15358;SDS011;7779;49.596;11.070;2023-04-24T06:47:08;2.13;;;0.70;;
15358;SDS011;7779;49.596;11.070;2023-04-24T06:49:36;0.40;;;0.33;;
15358;SDS011;7779;49.596;11.070;2023-04-24T06:52:02;1.00;;;0.60;;
15358;SDS011;7779;49.596;11.070;2023-04-24T06:54:29;1.30;;;0.67;;
15358;SDS011;7779;49.596;11.070;2023-04-24T06:56:55;0.93;;;0.60;;
15358;SDS011;7779;49.596;11.070;2023-04-24T06:59:23;0.90;;;0.70;;
15358;SDS011;7779;49.596;11.070;2023-04-24T07:01:49;1.77;;;0.60;;
15358;SDS011;7779;49.596;11.070;2023-04-24T07:04:18;1.30;;;0.70;;
15358;SDS011;7779;49.596;11.070;2023-04-24T07:06:44;0.70;;;0.60;;
15358;SDS011;7779;49.596;11.070;2023-04-24T07:09:11;1.43;;;0.80;;
15358;SDS011;7779;49.596;11.070;2023-04-24T07:11:38;1.43;;;0.80;;
15358;SDS011;7779;49.596;11.070;2023-04-24T07:14:05;0.80;;;0.60;;
15358;SDS011;7779;49.596;11.070;2023-04-24T07:16:32;0.50;;;0.50;;
15358;SDS011;7779;49.596;11.070;2023-04-24T07:18:57;0.57;;;0.43;;
15358;SDS011;7779;49.596;11.070;2023-04-24T07:21:23;2.77;;;0.57;;
15358;SDS011;7779;49.596;11.070;2023-04-24T07:23:50;0.50;;;0.50;;
15358;SDS011;7779;49.596;11.070;2023-04-24T07:26:17;0.77;;;0.70;;
15358;SDS011;7779;49.596;11.070;2023-04-24T07:28:42;0.40;;;0.40;;
15358;SDS011;7779;49.596;11.070;2023-04-24T07:31:08;0.53;;;0.47;;
15358;SDS011;7779;49.596;11.070;2023-04-24T07:33:36;1.13;;;0.43;;
15358;SDS011;7779;49.596;11.070;2023-04-24T07:36:02;0.40;;;0.30;;
15358;SDS011;7779;49.596;11.070;2023-04-24T07:38:29;0.93;;;0.50;;
15358;SDS011;7779;49.596;11.070;2023-04-24T07:40:56;0.60;;;0.60;;
15358;SDS011;7779;49.596;11.070;2023-04-24T07:43:21;1.70;;;0.37;;
15358;SDS011;7779;49.596;11.070;2023-04-24T07:45:48;0.47;;;0.40;;
15358;SDS011;7779;49.596;11.070;2023-04-24T07:48:15;0.70;;;0.60;;
15358;SDS011;7779;49.596;11.070;2023-04-24T07:50:43;0.83;;;0.63;;
15358;SDS011;7779;49.596;11.070;2023-04-24T07:53:11;0.60;;;0.53;;
15358;SDS011;7779;49.596;11.070;2023-04-24T07:55:37;0.60;;;0.40;;
15358;SDS011;7779;49.596;11.070;2023-04-24T07:58:03;1.03;;;0.60;;
15358;SDS011;7779;49.596;11.070;2023-04-24T08:00:29;1.80;;;0.70;;
15358;SDS011;7779;49.596;11.070;2023-04-24T08:02:54;1.07;;;0.63;;
15358;SDS011;7779;49.596;11.070;2023-04-24T08:05:20;1.70;;;0.80;;
15358;SDS011;7779;49.596;11.070;2023-04-24T08:07:46;2.67;;;0.90;;
15358;SDS011;7779;49.596;11.070;2023-04-24T08:10:13;1.63;;;0.83;;
15358;SDS011;7779;49.596;11.070;2023-04-24T08:12:40;6.27;;;1.97;;
15358;SDS011;7779;49.596;11.070;2023-04-24T08:15:06;2.87;;;1.70;;
15358;SDS011;7779;49.596;11.070;2023-04-24T08:17:34;2.47;;;1.10;;
15358;SDS011;7779;49.596;11.070;2023-04-24T08:20:00;1.60;;;1.10;;
15358;SDS011;7779;49.596;11.070;2023-04-24T08:22:30;2.93;;;1.77;;
15358;SDS011;7779;49.596;11.070;2023-04-24T08:24:56;1.63;;;1.43;;
15358;SDS011;7779;49.596;11.070;2023-04-24T08:27:25;1.53;;;1.30;;
15358;SDS011;7779;49.596;11.070;2023-04-24T08:29:53;2.33;;;1.60;;
15358;SDS011;7779;49.596;11.070;2023-04-24T08:32:19;1.23;;;1.07;;
15358;SDS011;7779;49.596;11.070;2023-04-24T08:34:45;1.80;;;1.37;;
15358;SDS011;7779;49.596;11.070;2023-04-24T08:37:11;1.20;;;1.10;;
15358;SDS011;7779;49.596;11.070;2023-04-24T08:39:37;1.87;;;1.20;;
15358;SDS011;7779;49.596;11.070;2023-04-24T08:42:03;1.17;;;1.07;;
15358;SDS011;7779;49.596;11.070;2023-04-24T08:44:33;1.30;;;0.90;;
15358;SDS011;7779;49.596;11.070;2023-04-24T08:47:03;1.27;;;1.00;;
15358;SDS011;7779;49.596;11.070;2023-04-24T08:49:30;2.30;;;1.20;;
15358;SDS011;7779;49.596;11.070;2023-04-24T08:51:57;1.87;;;1.27;;
15358;SDS011;7779;49.596;11.070;2023-04-24T08:54:22;1.43;;;1.00;;
15358;SDS011;7779;49.596;11.070;2023-04-24T08:56:50;1.23;;;1.13;;
15358;SDS011;7779;49.596;11.070;2023-04-24T08:59:19;2.03;;;1.00;;
15358;SDS011;7779;49.596;11.070;2023-04-24T09:01:47;1.57;;;1.03;;
15358;SDS011;7779;49.596;11.070;2023-04-24T09:04:16;1.57;;;1.10;;
15358;SDS011;7779;49.596;11.070;2023-04-24T09:06:46;0.93;;;0.93;;
15358;SDS011;7779;49.596;11.070;2023-04-24T09:09:14;2.03;;;1.33;;
15358;SDS011;7779;49.596;11.070;2023-04-24T09:11:43;0.90;;;0.90;;
15358;SDS011;7779;49.596;11.070;2023-04-24T09:14:09;1.10;;;1.00;;
15358;SDS011;7779;49.596;11.070;2023-04-24T09:16:36;2.73;;;1.00;;
15358;SDS011;7779;49.596;11.070;2023-04-24T09:19:01;1.00;;;1.00;;
15358;SDS011;7779;49.596;11.070;2023-04-24T09:21:31;1.10;;;1.00;;
15358;SDS011;7779;49.596;11.070;2023-04-24T09:24:00;1.20;;;1.10;;
15358;SDS011;7779;49.596;11.070;2023-04-24T09:26:34;1.33;;;1.07;;
15358;SDS011;7779;49.596;11.070;2023-04-24T09:29:01;1.30;;;1.13;;
15358;SDS011;7779;49.596;11.070;2023-04-24T09:31:29;1.63;;;1.03;;
15358;SDS011;7779;49.596;11.070;2023-04-24T09:36:34;1.13;;;0.90;;
15358;SDS011;7779;49.596;11.070;2023-04-24T09:39:07;1.53;;;0.83;;
15358;SDS011;7779;49.596;11.070;2023-04-24T09:41:51;1.10;;;1.00;;
15358;SDS011;7779;49.596;11.070;2023-04-24T09:44:21;1.17;;;0.90;;
15358;SDS011;7779;49.596;11.070;2023-04-24T09:46:59;0.90;;;0.80;;
15358;SDS011;7779;49.596;11.070;2023-04-24T09:49:26;2.20;;;0.80;;
15358;SDS011;7779;49.596;11.070;2023-04-24T09:52:05;1.17;;;0.90;;
15358;SDS011;7779;49.596;11.070;2023-04-24T09:54:36;1.00;;;0.90;;
15358;SDS011;7779;49.596;11.070;2023-04-24T09:57:03;0.97;;;0.90;;
15358;SDS011;7779;49.596;11.070;2023-04-24T09:59:30;0.77;;;0.73;;
15358;SDS011;7779;49.596;11.070;2023-04-24T10:01:56;1.47;;;0.97;;
15358;SDS011;7779;49.596;11.070;2023-04-24T10:04:26;1.03;;;0.93;;
15358;SDS011;7779;49.596;11.070;2023-04-24T10:06:54;0.70;;;0.70;;
15358;SDS011;7779;49.596;11.070;2023-04-24T10:09:24;0.77;;;0.77;;
15358;SDS011;7779;49.596;11.070;2023-04-24T10:11:52;1.03;;;0.73;;
15358;SDS011;7779;49.596;11.070;2023-04-24T10:14:23;1.00;;;0.73;;
15358;SDS011;7779;49.596;11.070;2023-04-24T10:16:50;1.00;;;0.70;;
15358;SDS011;7779;49.596;11.070;2023-04-24T10:19:21;0.90;;;0.80;;
15358;SDS011;7779;49.596;11.070;2023-04-24T10:21:51;1.27;;;0.90;;
15358;SDS011;7779;49.596;11.070;2023-04-24T10:24:19;1.33;;;0.80;;
15358;SDS011;7779;49.596;11.070;2023-04-24T10:26:48;2.23;;;0.77;;
15358;SDS011;7779;49.596;11.070;2023-04-24T10:29:15;0.83;;;0.80;;
15358;SDS011;7779;49.596;11.070;2023-04-24T10:31:42;2.30;;;0.70;;
15358;SDS011;7779;49.596;11.070;2023-04-24T10:34:10;0.80;;;0.70;;
15358;SDS011;7779;49.596;11.070;2023-04-24T10:36:38;0.80;;;0.70;;
15358;SDS011;7779;49.596;11.070;2023-04-24T10:39:10;0.60;;;0.60;;
15358;SDS011;7779;49.596;11.070;2023-04-24T10:41:40;0.40;;;0.40;;
15358;SDS011;7779;49.596;11.070;2023-04-24T10:44:09;0.60;;;0.40;;
15358;SDS011;7779;49.596;11.070;2023-04-24T10:46:39;0.60;;;0.57;;
15358;SDS011;7779;49.596;11.070;2023-04-24T10:49:10;0.67;;;0.40;;
15358;SDS011;7779;49.596;11.070;2023-04-24T10:51:48;0.30;;;0.30;;
15358;SDS011;7779;49.596;11.070;2023-04-24T10:59:46;0.73;;;0.40;;
15358;SDS011;7779;49.596;11.070;2023-04-24T11:02:16;0.60;;;0.47;;
15358;SDS011;7779;49.596;11.070;2023-04-24T11:04:43;0.70;;;0.40;;
15358;SDS011;7779;49.596;11.070;2023-04-24T11:07:10;1.20;;;0.40;;
15358;SDS011;7779;49.596;11.070;2023-04-24T11:09:37;0.80;;;0.70;;
15358;SDS011;7779;49.596;11.070;2023-04-24T11:12:06;1.40;;;0.50;;
15358;SDS011;7779;49.596;11.070;2023-04-24T11:20:11;1.20;;;0.50;;
15358;SDS011;7779;49.596;11.070;2023-04-24T11:22:42;1.57;;;0.50;;
15358;SDS011;7779;49.596;11.070;2023-04-24T11:25:08;0.53;;;0.50;;
15358;SDS011;7779;49.596;11.070;2023-04-24T11:27:40;1.07;;;0.73;;
15358;SDS011;7779;49.596;11.070;2023-04-24T11:30:08;0.80;;;0.80;;
15358;SDS011;7779;49.596;11.070;2023-04-24T11:32:36;0.80;;;0.50;;
15358;SDS011;7779;49.596;11.070;2023-04-24T11:37:42;0.80;;;0.80;;
15358;SDS011;7779;49.596;11.070;2023-04-24T11:40:17;1.07;;;0.70;;
15358;SDS011;7779;49.596;11.070;2023-04-24T11:42:51;1.00;;;0.77;;
15358;SDS011;7779;49.596;11.070;2023-04-24T11:45:27;0.80;;;0.80;;
15358;SDS011;7779;49.596;11.070;2023-04-24T11:47:55;1.27;;;0.70;;
15358;SDS011;7779;49.596;11.070;2023-04-24T11:50:22;0.60;;;0.60;;
15358;SDS011;7779;49.596;11.070;2023-04-24T11:52:51;0.90;;;0.60;;
15358;SDS011;7779;49.596;11.070;2023-04-24T11:57:44;0.80;;;0.70;;
15358;SDS011;7779;49.596;11.070;2023-04-24T12:00:21;0.90;;;0.50;;
15358;SDS011;7779;49.596;11.070;2023-04-24T12:03:10;1.13;;;0.60;;
15358;SDS011;7779;49.596;11.070;2023-04-24T12:05:37;0.83;;;0.70;;
15358;SDS011;7779;49.596;11.070;2023-04-24T12:08:03;0.80;;;0.77;;
15358;SDS011;7779;49.596;11.070;2023-04-24T12:10:31;1.00;;;0.90;;
15358;SDS011;7779;49.596;11.070;2023-04-24T12:12:59;0.80;;;0.80;;
15358;SDS011;7779;49.596;11.070;2023-04-24T12:15:25;0.90;;;0.80;;
15358;SDS011;7779;49.596;11.070;2023-04-24T12:17:52;1.73;;;0.70;;
15358;SDS011;7779;49.596;11.070;2023-04-24T12:20:24;0.70;;;0.70;;
15358;SDS011;7779;49.596;11.070;2023-04-24T12:22:58;4.03;;;0.90;;
15358;SDS011;7779;49.596;11.070;2023-04-24T12:25:26;0.90;;;0.60;;
15358;SDS011;7779;49.596;11.070;2023-04-24T12:27:55;0.77;;;0.70;;
15358;SDS011;7779;49.596;11.070;2023-04-24T12:30:42;1.10;;;1.00;;
15358;SDS011;7779;49.596;11.070;2023-04-24T12:33:22;1.20;;;0.70;;
15358;SDS011;7779;49.596;11.070;2023-04-24T12:35:48;1.03;;;0.87;;
15358;SDS011;7779;49.596;11.070;2023-04-24T12:38:24;1.00;;;0.90;;
15358;SDS011;7779;49.596;11.070;2023-04-24T12:41:04;1.33;;;0.90;;
15358;SDS011;7779;49.596;11.070;2023-04-24T12:43:32;1.53;;;0.60;;
15358;SDS011;7779;49.596;11.070;2023-04-24T12:45:58;0.67;;;0.67;;
15358;SDS011;7779;49.596;11.070;2023-04-24T12:48:27;1.50;;;1.00;;
15358;SDS011;7779;49.596;11.070;2023-04-24T12:50:54;1.37;;;0.90;;
15358;SDS011;7779;49.596;11.070;2023-04-24T12:53:21;0.97;;;0.90;;
15358;SDS011;7779;49.596;11.070;2023-04-24T12:55:47;0.77;;;0.77;;
15358;SDS011;7779;49.596;11.070;2023-04-24T12:58:18;0.90;;;0.73;;
15358;SDS011;7779;49.596;11.070;2023-04-24T13:00:47;1.10;;;1.00;;
15358;SDS011;7779;49.596;11.070;2023-04-24T13:03:13;1.53;;;0.83;;
15358;SDS011;7779;49.596;11.070;2023-04-24T13:05:40;1.63;;;1.10;;
15358;SDS011;7779;49.596;11.070;2023-04-24T13:08:08;2.30;;;1.07;;
15358;SDS011;7779;49.596;11.070;2023-04-24T13:10:34;1.50;;;1.10;;
15358;SDS011;7779;49.596;11.070;2023-04-24T13:13:00;1.03;;;1.00;;
15358;SDS011;7779;49.596;11.070;2023-04-24T13:15:26;1.23;;;1.13;;
15358;SDS011;7779;49.596;11.070;2023-04-24T13:17:51;1.83;;;0.97;;
15358;SDS011;7779;49.596;11.070;2023-04-24T13:20:17;2.57;;;1.43;;
15358;SDS011;7779;49.596;11.070;2023-04-24T13:22:43;1.57;;;1.10;;
15358;SDS011;7779;49.596;11.070;2023-04-24T13:25:09;1.70;;;1.27;;
15358;SDS011;7779;49.596;11.070;2023-04-24T13:27:35;3.30;;;1.10;;
15358;SDS011;7779;49.596;11.070;2023-04-24T13:30:03;2.27;;;1.30;;
15358;SDS011;7779;49.596;11.070;2023-04-24T13:32:29;0.80;;;0.80;;
15358;SDS011;7779;49.596;11.070;2023-04-24T13:34:54;1.20;;;0.87;;
15358;SDS011;7779;49.596;11.070;2023-04-24T13:37:21;0.83;;;0.80;;
15358;SDS011;7779;49.596;11.070;2023-04-24T13:39:47;0.83;;;0.73;;
15358;SDS011;7779;49.596;11.070;2023-04-24T13:42:13;1.00;;;0.90;;
15358;SDS011;7779;49.596;11.070;2023-04-24T13:44:39;1.00;;;0.87;;
15358;SDS011;7779;49.596;11.070;2023-04-24T13:47:05;1.80;;;0.87;;
15358;SDS011;7779;49.596;11.070;2023-04-24T13:49:31;0.97;;;0.97;;
15358;SDS011;7779;49.596;11.070;2023-04-24T13:51:57;0.70;;;0.70;;
15358;SDS011;7779;49.596;11.070;2023-04-24T13:54:22;1.23;;;0.80;;
15358;SDS011;7779;49.596;11.070;2023-04-24T13:56:50;1.23;;;0.90;;
15358;SDS011;7779;49.596;11.070;2023-04-24T13:59:17;1.03;;;0.70;;
15358;SDS011;7779;49.596;11.070;2023-04-24T14:01:45;3.07;;;1.00;;
15358;SDS011;7779;49.596;11.070;2023-04-24T14:04:11;0.80;;;0.80;;
15358;SDS011;7779;49.596;11.070;2023-04-24T14:06:37;1.50;;;1.10;;
15358;SDS011;7779;49.596;11.070;2023-04-24T14:09:02;0.70;;;0.67;;
15358;SDS011;7779;49.596;11.070;2023-04-24T14:11:28;0.50;;;0.50;;
15358;SDS011;7779;49.596;11.070;2023-04-24T14:13:54;0.70;;;0.60;;
15358;SDS011;7779;49.596;11.070;2023-04-24T14:16:23;2.07;;;0.77;;
15358;SDS011;7779;49.596;11.070;2023-04-24T14:18:50;0.77;;;0.77;;
15358;SDS011;7779;49.596;11.070;2023-04-24T14:21:15;1.17;;;0.80;;
15358;SDS011;7779;49.596;11.070;2023-04-24T14:23:41;1.33;;;1.00;;
15358;SDS011;7779;49.596;11.070;2023-04-24T14:26:07;2.10;;;1.00;;
15358;SDS011;7779;49.596;11.070;2023-04-24T14:28:32;0.77;;;0.77;;
15358;SDS011;7779;49.596;11.070;2023-04-24T14:30:58;2.07;;;0.80;;
15358;SDS011;7779;49.596;11.070;2023-04-24T14:33:24;1.07;;;0.97;;
15358;SDS011;7779;49.596;11.070;2023-04-24T14:35:50;1.20;;;1.10;;
15358;SDS011;7779;49.596;11.070;2023-04-24T14:38:16;0.90;;;0.90;;
15358;SDS011;7779;49.596;11.070;2023-04-24T14:40:42;1.13;;;1.03;;
15358;SDS011;7779;49.596;11.070;2023-04-24T14:43:07;0.83;;;0.80;;
15358;SDS011;7779;49.596;11.070;2023-04-24T14:45:33;1.20;;;1.10;;
15358;SDS011;7779;49.596;11.070;2023-04-24T14:47:59;1.23;;;0.87;;
15358;SDS011;7779;49.596;11.070;2023-04-24T14:50:25;1.90;;;0.90;;
15358;SDS011;7779;49.596;11.070;2023-04-24T14:52:53;2.17;;;1.07;;
15358;SDS011;7779;49.596;11.070;2023-04-24T14:55:22;1.23;;;0.83;;
15358;SDS011;7779;49.596;11.070;2023-04-24T14:57:49;1.27;;;1.00;;
15358;SDS011;7779;49.596;11.070;2023-04-24T15:00:14;1.10;;;1.00;;
15358;SDS011;7779;49.596;11.070;2023-04-24T15:02:42;1.50;;;1.03;;
15358;SDS011;7779;49.596;11.070;2023-04-24T15:05:09;1.00;;;0.90;;
15358;SDS011;7779;49.596;11.070;2023-04-24T15:07:36;1.00;;;0.83;;
15358;SDS011;7779;49.596;11.070;2023-04-24T15:10:03;1.30;;;0.70;;